Flugplatz Schönberg (EDPK)

Hier findest Du alle Informationen zum Flugplatz Schönberg (EDPK).

Informationen für Piloten zum Flugplatz Schönberg

Hier findest Du alle relevanten Informationen, die Du als Pilot benötigst, um Schönberg anzufliegen.

Flugplatz: Schönberg ICAO-Code: EDPK
Frequenz Turm: 118,55 Mhz GAFOR Gebiet: -
Frequenz Ground: 118,55 Mhz Mogas: ja
Platzrunde: N 2600 ft Landegebühr: 5 €
Platzhöhe: Sunrise: 03:16 Uhr UTC
Pisten: 08/26 - 450 m x 30 m, GRAS Sunset: 18:57 Uhr UTC

Flugwetter am Flugplatz Schönberg

Die METAR Information stammen aus EDDM (63.02 km entfernt).

METAR Code:
2020/05/24 06:50
EDDM 240650Z 26010KT 9999 FEW038 11/07 Q1031 BECMG 29015G25KT

Temperatur: 10,0 °C Niederschlag: - Wind: 2,6 kt
Temperatur (min.): 9,4 °C Luftdruck: 1031 hPa Windrichtung: 279 °
Temperatur (max.): 10,6 °C Luftfeuchtigkeit: 81 % Bewölkung: 5/8

Flugschulen am Flugplatz Schönberg

Am Flugplatz Schönberg gibt es leider keine Flugschule.

Benachbarte Flugplätze und Flugschulen

Es gibt 14 weitere Flugplätze in einem Umkreis von 50 km um den Flugplatz Schönberg.

Jetzt anmelden

Passwort vergessen

Umfrage Archiv

Wären Rettungsgeräte keine Pflicht mehr, würdet Ihr Euer UL trotzdem mit einem ausstatten?

Ja
78.5 %
Nein
21.5 %
Stimmen: 107 | Diskussion
Anzeige: Roland Aircraft
Statistik Alle Mitglieder

Aktuell sind 44 Besucher online.

Anzeige: VFR Sprechfunk Simulator


Anzeige: Pocket FMS